Ashton, Maryland
Current Conditions -  °F | °C
As of 1:15 PM on Saturday 25 Oct 2014 (Local Time) from KGAI Reporting Station
Clear Clear  
Wind Chill: 66°   Ceiling: Unl
Heat Index: 66°   Visibility: 10mi
Dew Point: 43°   Wind: 12mph
Humidity: 43%   Direction: 260°W
Pressure: 29.9"   Gusts: 18mph
Location:  39.15°N, 77.01°W
Report Text: KGAI 251715Z 26010G16KT 10SM CLR 19/06 A2990 RMK AO1
Loading
Personal Weather Stations






























Interactive Weather Map
Tropical Storm Tracking
New forecast layout! Learn more

10-Day Weather Forecast

Advertisements
Track Severe Weather on mobile